Time;durP1;ratioP1;P1;durP2;ratioP2;P2;SDS_P1;SDS_P2;PMS_P1;PMS_P2;Temp;Humidity;BMP_temperature;BMP_pressure;BME280_temperature;BME280_humidity;BME280_pressure;Samples;Min_cycle;Max_cycle;Signal;HPM_P1;HPM_P2
2021/10/06 00:01:48;;;;;;;7.32;2.10;;;;;;;;;;5037127;28;20029;-81
2021/10/06 00:04:14;;;;;;;5.32;2.00;;;;;;;;;;5001799;28;20041;-85
2021/10/06 00:06:40;;;;;;;6.18;1.75;;;;;;;;;;5002270;28;20508;-81
2021/10/06 00:09:06;;;;;;;6.07;1.88;;;;;;;;;;4998897;28;20030;-81
2021/10/06 00:11:32;;;;;;;6.63;1.85;;;;;;;;;;5017936;28;20034;-85
2021/10/06 00:13:58;;;;;;;5.70;1.55;;;;;;;;;;5005676;28;20164;-81
2021/10/06 00:16:23;;;;;;;7.72;2.10;;;;;;;;;;5001662;28;20048;-81
2021/10/06 00:18:48;;;;;;;5.38;1.70;;;;;;;;;;5016166;28;20084;-81
2021/10/06 00:21:14;;;;;;;6.82;1.90;;;;;;;;;;5003864;28;20029;-83
2021/10/06 00:23:39;;;;;;;5.10;1.90;;;;;;;;;;5022344;28;20104;-81
2021/10/06 00:26:05;;;;;;;4.55;1.40;;;;;;;;;;5017569;28;20030;-83
2021/10/06 00:28:31;;;;;;;4.03;1.45;;;;;;;;;;5016979;28;20089;-81
2021/10/06 00:30:58;;;;;;;11.15;2.22;;;;;;;;;;5015494;28;20037;-82
2021/10/06 00:33:26;;;;;;;6.18;1.63;;;;;;;;;;5038555;28;20033;-81
2021/10/06 00:35:53;;;;;;;5.88;1.50;;;;;;;;;;5030646;28;20509;-81
2021/10/06 00:38:19;;;;;;;4.93;1.50;;;;;;;;;;5048711;28;20500;-82
2021/10/06 00:40:44;;;;;;;7.55;1.80;;;;;;;;;;5035550;28;20025;-82
2021/10/06 00:43:10;;;;;;;8.57;1.58;;;;;;;;;;5017753;28;20056;-81
2021/10/06 00:45:36;;;;;;;5.00;1.50;;;;;;;;;;5016497;28;20033;-83
2021/10/06 00:48:02;;;;;;;3.45;1.40;;;;;;;;;;5018552;28;20040;-84
2021/10/06 00:50:27;;;;;;;7.05;1.63;;;;;;;;;;5031878;28;20040;-82
2021/10/06 00:52:53;;;;;;;7.22;1.60;;;;;;;;;;5002079;28;20033;-83
2021/10/06 00:55:18;;;;;;;9.25;1.45;;;;;;;;;;5027625;28;20112;-85
2021/10/06 00:57:44;;;;;;;8.45;1.52;;;;;;;;;;5010394;28;20101;-82
2021/10/06 01:00:11;;;;;;;6.55;1.50;;;;;;;;;;5048069;28;20032;-83
2021/10/06 01:02:36;;;;;;;4.97;1.58;;;;;;;;;;5040323;28;20042;-84
2021/10/06 01:05:04;;;;;;;3.50;1.45;;;;;;;;;;5011342;28;20041;-84
2021/10/06 01:07:30;;;;;;;5.72;1.40;;;;;;;;;;5020596;28;20045;-82
2021/10/06 01:09:56;;;;;;;5.70;1.80;;;;;;;;;;5035592;28;20427;-81
2021/10/06 01:12:22;;;;;;;3.80;1.50;;;;;;;;;;4998527;28;20125;-84
2021/10/06 01:14:48;;;;;;;9.30;1.75;;;;;;;;;;5017014;28;20508;-83
2021/10/06 01:17:14;;;;;;;5.93;1.48;;;;;;;;;;5015332;28;20041;-84
2021/10/06 01:19:40;;;;;;;5.10;1.45;;;;;;;;;;5021751;28;20059;-84
2021/10/06 01:22:06;;;;;;;8.73;2.00;;;;;;;;;;5034942;28;20032;-82
2021/10/06 01:24:32;;;;;;;4.97;1.33;;;;;;;;;;5015052;28;20095;-85
2021/10/06 01:26:59;;;;;;;5.82;1.50;;;;;;;;;;4998437;28;20044;-85
2021/10/06 01:29:25;;;;;;;5.85;1.52;;;;;;;;;;5022409;28;20039;-81
2021/10/06 01:31:51;;;;;;;5.82;1.48;;;;;;;;;;5001531;28;20121;-81
2021/10/06 01:34:19;;;;;;;6.32;1.95;;;;;;;;;;5035309;28;20064;-82
2021/10/06 01:36:50;;;;;;;3.88;1.38;;;;;;;;;;5020624;28;20025;-81
2021/10/06 01:39:17;;;;;;;5.18;1.60;;;;;;;;;;5033027;28;20033;-81
2021/10/06 01:41:43;;;;;;;5.50;1.40;;;;;;;;;;5016898;28;20033;-81
2021/10/06 01:44:14;;;;;;;5.43;1.45;;;;;;;;;;5032483;28;20029;-81
2021/10/06 01:46:39;;;;;;;6.07;1.42;;;;;;;;;;5018565;28;20025;-85
2021/10/06 01:49:05;;;;;;;3.75;1.30;;;;;;;;;;5006918;28;20033;-84
2021/10/06 01:51:30;;;;;;;7.43;1.90;;;;;;;;;;5012401;28;20048;-82
2021/10/06 01:53:56;;;;;;;5.35;1.50;;;;;;;;;;5023171;28;20128;-81
2021/10/06 01:56:21;;;;;;;6.07;1.60;;;;;;;;;;5016834;28;20030;-85
2021/10/06 01:58:47;;;;;;;5.70;1.60;;;;;;;;;;5033766;28;20036;-81
2021/10/06 02:01:13;;;;;;;6.80;1.58;;;;;;;;;;5037025;28;20028;-82
2021/10/06 02:03:38;;;;;;;6.88;1.48;;;;;;;;;;5037752;28;20083;-82
2021/10/06 02:06:03;;;;;;;7.00;1.70;;;;;;;;;;5050568;28;20044;-83
2021/10/06 02:08:29;;;;;;;5.15;1.30;;;;;;;;;;5022365;28;20033;-81
2021/10/06 02:10:54;;;;;;;9.25;1.73;;;;;;;;;;5043022;28;20029;-81
2021/10/06 02:13:21;;;;;;;5.72;1.23;;;;;;;;;;5029453;28;20388;-81
2021/10/06 02:15:47;;;;;;;7.40;2.50;;;;;;;;;;5035108;28;20025;-82
2021/10/06 02:18:13;;;;;;;3.95;1.42;;;;;;;;;;5034328;28;20029;-81
2021/10/06 02:20:38;;;;;;;10.00;2.65;;;;;;;;;;5019840;28;20033;-81
2021/10/06 02:23:03;;;;;;;6.07;1.50;;;;;;;;;;5028618;28;20045;-84
2021/10/06 02:25:29;;;;;;;5.97;1.70;;;;;;;;;;5035838;28;20423;-84
2021/10/06 02:27:54;;;;;;;6.18;1.40;;;;;;;;;;5019977;28;20030;-85
2021/10/06 02:30:20;;;;;;;4.57;1.30;;;;;;;;;;5037344;28;20392;-81
2021/10/06 02:32:45;;;;;;;9.50;1.60;;;;;;;;;;5039817;28;20029;-82
2021/10/06 02:35:11;;;;;;;5.97;1.77;;;;;;;;;;5032327;28;20039;-81
2021/10/06 02:37:38;;;;;;;5.07;1.40;;;;;;;;;;5032614;28;20025;-82
2021/10/06 02:40:07;;;;;;;5.15;2.00;;;;;;;;;;5034572;28;20040;-84
2021/10/06 02:42:32;;;;;;;6.00;1.80;;;;;;;;;;5037479;28;20078;-81
2021/10/06 02:44:58;;;;;;;7.60;1.70;;;;;;;;;;5038818;28;20540;-81
2021/10/06 02:47:23;;;;;;;5.18;1.50;;;;;;;;;;5008335;28;20492;-81
2021/10/06 02:49:49;;;;;;;6.60;1.80;;;;;;;;;;5031786;28;20041;-81
2021/10/06 02:52:14;;;;;;;4.88;1.48;;;;;;;;;;5019145;28;20030;-81
2021/10/06 02:54:40;;;;;;;5.97;1.40;;;;;;;;;;5036044;28;20508;-82
2021/10/06 02:57:05;;;;;;;5.75;1.73;;;;;;;;;;5018495;28;20030;-81
2021/10/06 02:59:31;;;;;;;5.78;1.50;;;;;;;;;;5036310;28;20057;-82
2021/10/06 03:01:57;;;;;;;6.93;1.60;;;;;;;;;;5035713;28;20068;-85
2021/10/06 03:04:23;;;;;;;6.47;1.63;;;;;;;;;;5030988;28;20029;-85
2021/10/06 03:06:50;;;;;;;8.07;2.00;;;;;;;;;;5036101;28;20412;-81
2021/10/06 03:09:15;;;;;;;7.93;2.33;;;;;;;;;;5036074;28;20034;-84
2021/10/06 03:11:41;;;;;;;4.95;1.80;;;;;;;;;;5034868;28;20029;-82
2021/10/06 03:14:07;;;;;;;5.15;1.88;;;;;;;;;;5047607;28;20089;-83
2021/10/06 03:16:32;;;;;;;5.70;1.85;;;;;;;;;;5036304;28;20071;-81
2021/10/06 03:18:58;;;;;;;5.68;1.60;;;;;;;;;;5038111;28;20029;-81
2021/10/06 03:21:23;;;;;;;7.32;1.77;;;;;;;;;;5031993;28;20034;-81
2021/10/06 03:23:49;;;;;;;8.35;2.15;;;;;;;;;;5029614;28;20033;-81
2021/10/06 03:26:14;;;;;;;6.25;1.50;;;;;;;;;;5036723;28;20079;-83
2021/10/06 03:28:40;;;;;;;4.45;1.60;;;;;;;;;;5036332;28;20033;-81
2021/10/06 03:31:05;;;;;;;3.97;1.33;;;;;;;;;;5034537;28;20489;-82
2021/10/06 03:33:31;;;;;;;4.03;1.30;;;;;;;;;;5026864;28;20041;-81
2021/10/06 03:35:57;;;;;;;3.72;1.33;;;;;;;;;;5036704;28;20029;-84
2021/10/06 03:38:23;;;;;;;6.35;1.58;;;;;;;;;;5010500;28;20056;-81
2021/10/06 03:40:48;;;;;;;5.18;1.33;;;;;;;;;;5018731;28;20037;-81
2021/10/06 03:43:14;;;;;;;5.85;1.77;;;;;;;;;;5035988;28;20074;-81
2021/10/06 03:45:39;;;;;;;4.75;1.30;;;;;;;;;;5030435;28;20444;-85
2021/10/06 03:48:05;;;;;;;4.60;1.20;;;;;;;;;;5034414;28;20032;-82
2021/10/06 03:50:31;;;;;;;5.40;1.17;;;;;;;;;;5022428;28;20037;-81
2021/10/06 03:52:56;;;;;;;4.10;1.20;;;;;;;;;;4998563;28;1138503;-81
2021/10/06 03:55:22;;;;;;;6.15;1.60;;;;;;;;;;5052877;28;20030;-81
2021/10/06 03:57:47;;;;;;;4.18;1.05;;;;;;;;;;5047917;28;20041;-81
2021/10/06 04:00:13;;;;;;;4.20;1.05;;;;;;;;;;5052730;28;20442;-81
2021/10/06 04:02:39;;;;;;;4.68;1.20;;;;;;;;;;5042506;28;20025;-80
2021/10/06 04:05:06;;;;;;;5.03;1.45;;;;;;;;;;5052802;28;20033;-81
2021/10/06 04:07:32;;;;;;;4.90;1.50;;;;;;;;;;5039017;28;20108;-81
2021/10/06 04:09:57;;;;;;;5.03;1.30;;;;;;;;;;5054816;28;20496;-83
2021/10/06 04:12:23;;;;;;;5.55;1.30;;;;;;;;;;5053132;28;20104;-83
2021/10/06 04:14:48;;;;;;;4.38;1.25;;;;;;;;;;5023088;28;20037;-81
2021/10/06 04:17:14;;;;;;;5.55;1.20;;;;;;;;;;5015070;28;20033;-84
2021/10/06 04:19:39;;;;;;;3.42;1.17;;;;;;;;;;5037579;28;20391;-84
2021/10/06 04:22:04;;;;;;;3.75;1.15;;;;;;;;;;5036243;28;20036;-82
2021/10/06 04:24:30;;;;;;;5.10;1.25;;;;;;;;;;5036600;28;20032;-82
2021/10/06 04:26:55;;;;;;;5.75;1.17;;;;;;;;;;5020381;28;20431;-83
2021/10/06 04:29:21;;;;;;;5.22;1.35;;;;;;;;;;5034527;28;20056;-81
2021/10/06 04:31:46;;;;;;;10.32;2.55;;;;;;;;;;5057067;28;20028;-82
2021/10/06 04:34:12;;;;;;;4.40;1.70;;;;;;;;;;5027321;28;20033;-81
2021/10/06 04:36:37;;;;;;;4.25;1.23;;;;;;;;;;5038323;28;20480;-82
2021/10/06 04:39:03;;;;;;;9.32;1.67;;;;;;;;;;5031578;28;20404;-81
2021/10/06 04:41:28;;;;;;;8.05;1.27;;;;;;;;;;5026814;28;20033;-85
2021/10/06 04:43:54;;;;;;;4.40;1.38;;;;;;;;;;5048845;28;20036;-84
2021/10/06 04:46:19;;;;;;;6.07;1.52;;;;;;;;;;5034980;28;20033;-84
2021/10/06 04:48:48;;;;;;;6.75;1.50;;;;;;;;;;5044439;28;20112;-83
2021/10/06 04:51:14;;;;;;;5.32;1.48;;;;;;;;;;5036153;28;20029;-81
2021/10/06 04:53:40;;;;;;;5.65;1.60;;;;;;;;;;5053369;28;20056;-83
2021/10/06 04:56:05;;;;;;;4.28;1.50;;;;;;;;;;5037039;28;20029;-85
2021/10/06 04:58:31;;;;;;;5.70;1.50;;;;;;;;;;5037655;28;20041;-82
2021/10/06 05:00:56;;;;;;;5.30;1.50;;;;;;;;;;5040511;28;20040;-82
2021/10/06 05:03:21;;;;;;;6.63;1.70;;;;;;;;;;5036098;28;20033;-81
2021/10/06 05:05:47;;;;;;;5.05;1.52;;;;;;;;;;5036449;28;20442;-85
2021/10/06 05:08:12;;;;;;;4.65;1.60;;;;;;;;;;5021149;28;20033;-81
2021/10/06 05:10:38;;;;;;;4.85;1.40;;;;;;;;;;5033457;28;20044;-82
2021/10/06 05:13:04;;;;;;;4.78;1.80;;;;;;;;;;5052361;28;20388;-84
2021/10/06 05:15:30;;;;;;;3.30;1.35;;;;;;;;;;5034893;28;20120;-83
2021/10/06 05:17:55;;;;;;;6.28;1.60;;;;;;;;;;5036434;28;20036;-81
2021/10/06 05:20:22;;;;;;;4.68;1.38;;;;;;;;;;5048528;28;20208;-81
2021/10/06 05:22:48;;;;;;;5.03;1.50;;;;;;;;;;5052812;28;20074;-85
2021/10/06 05:25:14;;;;;;;7.05;1.60;;;;;;;;;;5038213;28;20116;-83
2021/10/06 05:27:39;;;;;;;7.60;1.92;;;;;;;;;;5034813;28;20028;-85
2021/10/06 05:30:08;;;;;;;3.65;1.52;;;;;;;;;;5031012;28;20104;-82
2021/10/06 05:32:34;;;;;;;6.15;1.75;;;;;;;;;;5032506;28;20029;-83
2021/10/06 05:35:00;;;;;;;3.97;1.92;;;;;;;;;;5037102;28;20082;-85
2021/10/06 05:37:28;;;;;;;5.55;1.60;;;;;;;;;;5051261;28;20033;-85
2021/10/06 05:39:54;;;;;;;6.40;1.95;;;;;;;;;;5052605;28;20099;-81
2021/10/06 05:42:20;;;;;;;4.78;1.88;;;;;;;;;;5013410;28;20060;-84
2021/10/06 05:44:46;;;;;;;6.57;1.80;;;;;;;;;;5036416;28;20068;-84
2021/10/06 05:47:12;;;;;;;6.10;2.28;;;;;;;;;;5020831;28;20025;-83
2021/10/06 05:49:37;;;;;;;5.07;2.05;;;;;;;;;;5038274;28;20438;-81
2021/10/06 05:52:03;;;;;;;5.03;2.08;;;;;;;;;;5036676;28;20477;-83
2021/10/06 05:54:28;;;;;;;7.43;2.20;;;;;;;;;;5033736;28;20128;-81
2021/10/06 05:56:54;;;;;;;4.68;1.92;;;;;;;;;;5040875;28;20033;-82
2021/10/06 05:59:19;;;;;;;5.93;1.92;;;;;;;;;;5054275;28;20033;-84
2021/10/06 06:01:45;;;;;;;4.97;2.20;;;;;;;;;;5036268;28;20036;-85
2021/10/06 06:04:10;;;;;;;5.95;2.00;;;;;;;;;;5032134;28;20036;-83
2021/10/06 06:06:41;;;;;;;6.55;2.00;;;;;;;;;;5024773;28;20025;-85
2021/10/06 06:09:07;;;;;;;3.70;1.90;;;;;;;;;;5038022;28;20542;-82
2021/10/06 06:11:33;;;;;;;9.23;2.40;;;;;;;;;;5041775;28;20025;-83
2021/10/06 06:14:09;;;;;;;6.97;2.25;;;;;;;;;;5027688;28;20124;-81
2021/10/06 06:16:38;;;;;;;5.40;2.17;;;;;;;;;;5056775;28;20055;-82
2021/10/06 06:19:05;;;;;;;8.23;2.10;;;;;;;;;;5035685;28;20044;-85
2021/10/06 06:21:31;;;;;;;5.65;2.30;;;;;;;;;;5045254;28;20048;-85
2021/10/06 06:23:56;;;;;;;4.88;2.33;;;;;;;;;;5043042;28;20048;-82
2021/10/06 06:26:22;;;;;;;9.73;3.08;;;;;;;;;;5055400;28;20040;-83
2021/10/06 06:28:47;;;;;;;5.85;2.30;;;;;;;;;;5025587;28;20041;-84
2021/10/06 06:31:13;;;;;;;5.43;2.20;;;;;;;;;;5021522;28;20396;-83
2021/10/06 06:33:39;;;;;;;4.60;2.20;;;;;;;;;;5034818;28;20032;-81
2021/10/06 06:36:05;;;;;;;4.18;2.15;;;;;;;;;;5043543;28;20036;-81
2021/10/06 06:38:30;;;;;;;4.63;2.15;;;;;;;;;;5036154;28;20033;-81
2021/10/06 06:40:56;;;;;;;4.43;2.38;;;;;;;;;;5037791;28;20036;-81
2021/10/06 06:43:22;;;;;;;7.85;2.30;;;;;;;;;;5038412;28;20036;-81
2021/10/06 06:45:47;;;;;;;3.92;2.15;;;;;;;;;;5049517;28;20037;-84
2021/10/06 06:48:13;;;;;;;4.72;2.10;;;;;;;;;;5036939;28;20411;-84
2021/10/06 06:50:38;;;;;;;4.85;2.13;;;;;;;;;;5023193;28;20035;-82
2021/10/06 06:53:04;;;;;;;3.15;2.00;;;;;;;;;;5044755;28;20123;-81
2021/10/06 06:55:30;;;;;;;3.53;2.05;;;;;;;;;;5041916;28;20040;-84
2021/10/06 06:57:55;;;;;;;6.85;2.33;;;;;;;;;;5054736;28;20059;-81
2021/10/06 07:00:21;;;;;;;6.80;2.33;;;;;;;;;;5057533;28;20057;-84
2021/10/06 07:02:47;;;;;;;4.60;2.50;;;;;;;;;;5041438;28;20025;-82
2021/10/06 07:05:13;;;;;;;5.28;2.35;;;;;;;;;;5056216;28;20487;-82
2021/10/06 07:07:38;;;;;;;3.63;2.30;;;;;;;;;;5033352;28;20120;-84
2021/10/06 07:10:05;;;;;;;4.72;2.10;;;;;;;;;;5050276;28;20041;-83
2021/10/06 07:12:30;;;;;;;5.32;2.30;;;;;;;;;;5051459;28;20053;-82
2021/10/06 07:14:56;;;;;;;3.90;2.20;;;;;;;;;;5051669;28;20494;-81
2021/10/06 07:17:21;;;;;;;6.15;2.35;;;;;;;;;;5051313;28;20500;-84
2021/10/06 07:19:47;;;;;;;3.60;2.30;;;;;;;;;;5053421;28;20037;-83
2021/10/06 07:22:13;;;;;;;4.05;2.28;;;;;;;;;;5051793;28;20037;-83
2021/10/06 07:24:39;;;;;;;4.00;2.53;;;;;;;;;;5052834;28;20028;-85
2021/10/06 07:27:05;;;;;;;3.53;2.45;;;;;;;;;;5035293;28;20090;-84
2021/10/06 07:29:31;;;;;;;5.03;2.30;;;;;;;;;;5055727;28;20504;-85
2021/10/06 07:31:57;;;;;;;3.30;2.35;;;;;;;;;;5034745;28;20054;-82
2021/10/06 07:34:23;;;;;;;6.40;2.60;;;;;;;;;;5037409;28;20484;-81
2021/10/06 07:36:49;;;;;;;4.43;2.92;;;;;;;;;;5051802;28;20029;-85
2021/10/06 07:39:14;;;;;;;3.33;2.25;;;;;;;;;;5024930;28;20115;-85
2021/10/06 07:41:40;;;;;;;4.82;2.38;;;;;;;;;;5037426;28;20033;-82
2021/10/06 07:44:05;;;;;;;3.42;2.10;;;;;;;;;;5047318;28;20119;-81
2021/10/06 07:46:31;;;;;;;4.45;2.60;;;;;;;;;;5033875;28;20025;-81
2021/10/06 07:48:56;;;;;;;4.10;2.15;;;;;;;;;;5036971;28;20362;-83
2021/10/06 07:51:23;;;;;;;4.43;2.10;;;;;;;;;;5020172;28;20156;-84
2021/10/06 07:53:49;;;;;;;3.67;2.00;;;;;;;;;;5054592;28;20042;-84
2021/10/06 07:56:15;;;;;;;4.10;2.20;;;;;;;;;;5037966;28;20547;-83
2021/10/06 07:58:41;;;;;;;4.85;2.30;;;;;;;;;;5051995;28;20406;-82
2021/10/06 08:01:08;;;;;;;4.80;2.30;;;;;;;;;;5041901;28;20029;-83
2021/10/06 08:03:33;;;;;;;2.80;2.05;;;;;;;;;;5036027;28;20048;-84
2021/10/06 08:05:59;;;;;;;4.13;2.10;;;;;;;;;;5038105;28;20036;-83
2021/10/06 08:08:26;;;;;;;3.42;2.10;;;;;;;;;;5052324;28;20041;-82
2021/10/06 08:10:57;;;;;;;2.95;1.88;;;;;;;;;;5012107;28;20036;-83
2021/10/06 08:13:23;;;;;;;3.40;2.13;;;;;;;;;;5032132;28;20071;-82
2021/10/06 08:15:50;;;;;;;5.68;2.40;;;;;;;;;;5036014;28;20472;-81
2021/10/06 08:18:16;;;;;;;3.70;2.30;;;;;;;;;;5040676;28;20043;-84
2021/10/06 08:20:48;;;;;;;3.35;2.33;;;;;;;;;;5049920;28;20115;-85
2021/10/06 08:23:16;;;;;;;3.17;1.90;;;;;;;;;;5034637;28;20473;-82
2021/10/06 08:25:43;;;;;;;4.97;2.00;;;;;;;;;;5038049;28;20100;-82
2021/10/06 08:28:09;;;;;;;3.10;2.20;;;;;;;;;;5032019;28;20029;-81
2021/10/06 08:30:34;;;;;;;5.15;2.28;;;;;;;;;;5036324;28;20127;-81
2021/10/06 08:33:00;;;;;;;2.97;2.13;;;;;;;;;;5041458;28;20021;-82
2021/10/06 08:35:25;;;;;;;5.72;2.30;;;;;;;;;;5032189;28;20028;-82
2021/10/06 08:37:51;;;;;;;3.20;2.05;;;;;;;;;;5037650;28;20472;-83
2021/10/06 08:40:16;;;;;;;2.92;2.00;;;;;;;;;;5034437;28;20033;-82
2021/10/06 08:42:43;;;;;;;3.25;2.13;;;;;;;;;;5033238;28;20108;-85
2021/10/06 08:45:09;;;;;;;5.18;2.15;;;;;;;;;;5033735;28;20460;-83
2021/10/06 08:47:40;;;;;;;3.80;2.20;;;;;;;;;;5018003;28;20038;-82
2021/10/06 08:50:08;;;;;;;3.15;2.10;;;;;;;;;;5050563;28;20029;-82
2021/10/06 08:52:34;;;;;;;5.38;2.25;;;;;;;;;;5033941;28;20380;-84
2021/10/06 08:55:05;;;;;;;3.88;2.20;;;;;;;;;;5045078;28;20049;-82
2021/10/06 08:57:31;;;;;;;4.20;2.42;;;;;;;;;;5049701;28;20111;-81
2021/10/06 08:59:56;;;;;;;5.90;2.20;;;;;;;;;;5049885;28;20090;-83
2021/10/06 09:02:22;;;;;;;4.93;2.35;;;;;;;;;;5034891;28;20043;-83
2021/10/06 09:04:48;;;;;;;3.53;2.10;;;;;;;;;;5050378;28;20546;-83
2021/10/06 09:07:14;;;;;;;3.90;2.13;;;;;;;;;;5028168;28;20968;-82
2021/10/06 09:09:39;;;;;;;4.65;2.17;;;;;;;;;;5036476;28;20045;-81
2021/10/06 09:12:15;;;;;;;5.15;1.88;;;;;;;;;;5047624;28;20496;-85
2021/10/06 09:14:43;;;;;;;5.25;2.08;;;;;;;;;;5049629;28;20033;-84
2021/10/06 09:17:11;;;;;;;3.03;2.08;;;;;;;;;;5034557;28;20071;-82
2021/10/06 09:19:53;;;;;;;5.65;2.33;;;;;;;;;;5031262;28;20040;-81
2021/10/06 09:22:21;;;;;;;5.80;2.30;;;;;;;;;;5031662;28;20021;-82
2021/10/06 09:25:03;;;;;;;5.18;2.25;;;;;;;;;;5028266;28;20050;-83
2021/10/06 09:27:37;;;;;;;8.15;2.72;;;;;;;;;;5028250;28;20075;-82
2021/10/06 09:30:07;;;;;;;5.50;2.30;;;;;;;;;;5045966;28;20017;-85
2021/10/06 09:32:44;;;;;;;4.43;2.30;;;;;;;;;;5048094;28;20020;-81
2021/10/06 09:35:13;;;;;;;4.82;1.92;;;;;;;;;;5042502;28;20399;-82
2021/10/06 09:37:44;;;;;;;6.03;2.10;;;;;;;;;;5030821;28;20056;-82
2021/10/06 09:40:11;;;;;;;5.20;1.80;;;;;;;;;;5030796;28;20024;-85
2021/10/06 09:42:48;;;;;;;3.40;1.50;;;;;;;;;;5050653;28;20025;-83
2021/10/06 09:45:25;;;;;;;6.55;2.00;;;;;;;;;;5046899;28;20025;-83
2021/10/06 09:47:59;;;;;;;7.18;1.90;;;;;;;;;;5048183;28;20392;-83
2021/10/06 09:50:25;;;;;;;6.13;1.75;;;;;;;;;;5033866;28;20035;-81
2021/10/06 09:52:52;;;;;;;7.40;1.90;;;;;;;;;;5034659;28;20018;-81
2021/10/06 09:55:19;;;;;;;6.50;1.73;;;;;;;;;;5034333;28;20029;-82
2021/10/06 09:57:45;;;;;;;5.20;1.42;;;;;;;;;;5054331;28;20052;-84
2021/10/06 10:00:17;;;;;;;3.90;1.30;;;;;;;;;;5035396;28;20048;-82
2021/10/06 10:02:44;;;;;;;2.70;0.93;;;;;;;;;;5015533;28;20044;-82
2021/10/06 10:05:11;;;;;;;6.85;1.10;;;;;;;;;;5047402;28;20408;-81
2021/10/06 10:07:37;;;;;;;4.35;1.00;;;;;;;;;;5018180;28;20155;-85
2021/10/06 10:10:05;;;;;;;5.28;1.20;;;;;;;;;;5031557;28;20515;-83
2021/10/06 10:12:30;;;;;;;5.32;1.50;;;;;;;;;;5030191;28;20374;-85
2021/10/06 10:14:57;;;;;;;7.95;1.20;;;;;;;;;;5019633;28;20040;-83
2021/10/06 10:17:24;;;;;;;8.23;1.40;;;;;;;;;;5041155;28;20037;-81
2021/10/06 10:19:55;;;;;;;5.22;1.48;;;;;;;;;;5050857;28;20025;-84
2021/10/06 10:22:22;;;;;;;5.15;1.65;;;;;;;;;;5033836;28;20112;-81
2021/10/06 10:24:50;;;;;;;5.45;1.15;;;;;;;;;;5023595;28;20036;-84
2021/10/06 10:27:19;;;;;;;5.03;1.42;;;;;;;;;;5022683;28;20099;-85
2021/10/06 10:29:44;;;;;;;7.95;1.15;;;;;;;;;;5025358;28;20523;-83
2021/10/06 10:32:17;;;;;;;4.85;1.10;;;;;;;;;;5040368;28;20096;-81
2021/10/06 10:35:03;;;;;;;;;;;;;;;;;;5050369;28;20434;-83
2021/10/06 10:37:47;;;;;;;6.63;1.50;;;;;;;;;;5051880;28;19917;-83
2021/10/06 10:40:33;;;;;;;6.40;1.35;;;;;;;;;;5049015;28;20123;-87
2021/10/06 10:43:00;;;;;;;7.25;1.35;;;;;;;;;;5054407;28;20385;-87
2021/10/06 10:45:59;;;;;;;4.38;0.90;;;;;;;;;;5054617;28;20121;-84
2021/10/06 10:48:28;;;;;;;6.63;1.88;;;;;;;;;;5052236;28;20057;-83
2021/10/06 10:50:53;;;;;;;4.68;1.33;;;;;;;;;;5034678;28;20017;-85
2021/10/06 10:53:21;;;;;;;6.18;1.48;;;;;;;;;;5032148;28;20045;-82
2021/10/06 10:56:00;;;;;;;5.63;1.25;;;;;;;;;;5029341;28;20349;-83
2021/10/06 10:58:29;;;;;;;6.72;1.27;;;;;;;;;;5031701;28;20033;-82
2021/10/06 11:01:05;;;;;;;6.18;1.20;;;;;;;;;;5031208;28;20021;-83
2021/10/06 11:03:31;;;;;;;5.82;1.10;;;;;;;;;;5039744;28;20471;-82
2021/10/06 11:05:57;;;;;;;5.50;1.10;;;;;;;;;;5031208;28;20018;-84
2021/10/06 11:08:30;;;;;;;6.22;1.42;;;;;;;;;;5000971;28;20033;-84
2021/10/06 11:11:13;;;;;;;6.20;1.45;;;;;;;;;;5029306;28;20017;-82
2021/10/06 11:13:46;;;;;;;4.68;2.28;;;;;;;;;;5046492;28;20026;-82
2021/10/06 11:16:11;;;;;;;7.15;1.50;;;;;;;;;;5032095;28;20037;-83
2021/10/06 11:18:41;;;;;;;5.57;1.58;;;;;;;;;;5001651;28;20053;-84
2021/10/06 11:21:08;;;;;;;5.00;1.80;;;;;;;;;;5031651;28;20018;-84
2021/10/06 11:23:42;;;;;;;6.90;1.90;;;;;;;;;;5026627;28;20036;-82
2021/10/06 11:26:11;;;;;;;9.20;2.30;;;;;;;;;;5044670;28;20025;-83
2021/10/06 11:28:39;;;;;;;6.55;2.13;;;;;;;;;;5033656;28;20035;-84
2021/10/06 11:31:06;;;;;;;9.50;2.10;;;;;;;;;;5051333;28;20029;-85
2021/10/06 11:33:33;;;;;;;9.60;2.38;;;;;;;;;;4999216;28;20026;-82
2021/10/06 11:36:20;;;;;;;9.45;2.60;;;;;;;;;;5033541;28;21305;-81
2021/10/06 11:38:54;;;;;;;8.88;1.92;;;;;;;;;;5038700;28;20037;-82
2021/10/06 11:41:19;;;;;;;8.40;3.00;;;;;;;;;;5030790;28;20799;-81
2021/10/06 11:43:50;;;;;;;4.25;2.00;;;;;;;;;;5018270;28;20041;-81
2021/10/06 11:46:24;;;;;;;8.25;2.05;;;;;;;;;;5014301;28;20396;-87
2021/10/06 11:48:52;;;;;;;9.07;2.30;;;;;;;;;;5026691;28;20365;-84
2021/10/06 11:51:20;;;;;;;9.23;2.17;;;;;;;;;;5028936;28;20029;-85
2021/10/06 11:53:48;;;;;;;12.68;2.80;;;;;;;;;;5035576;28;20055;-87
2021/10/06 11:56:31;;;;;;;6.72;2.40;;;;;;;;;;5043824;28;20398;-82
2021/10/06 11:59:07;;;;;;;8.70;2.28;;;;;;;;;;5048492;28;20039;-85
2021/10/06 12:01:33;;;;;;;6.55;1.92;;;;;;;;;;5037234;28;20041;-87
2021/10/06 12:04:10;;;;;;;8.73;1.77;;;;;;;;;;5029531;28;20040;-85
2021/10/06 12:06:36;;;;;;;6.43;1.95;;;;;;;;;;5033200;28;20032;-84
2021/10/06 12:09:08;;;;;;;9.52;1.70;;;;;;;;;;5020853;28;20114;-84
2021/10/06 12:11:35;;;;;;;4.82;1.42;;;;;;;;;;5035045;28;20687;-84
2021/10/06 12:14:19;;;;;;;7.57;1.42;;;;;;;;;;5049472;28;20024;-87
2021/10/06 12:16:45;;;;;;;7.05;1.55;;;;;;;;;;5048997;28;20039;-83
2021/10/06 12:19:10;;;;;;;6.00;1.67;;;;;;;;;;5027648;28;20033;-84
2021/10/06 12:21:44;;;;;;;6.80;1.88;;;;;;;;;;5050311;28;20044;-84
2021/10/06 12:24:21;;;;;;;5.47;1.77;;;;;;;;;;5047428;28;20478;-84
2021/10/06 12:26:47;;;;;;;7.50;1.80;;;;;;;;;;5021179;28;20036;-87
2021/10/06 12:29:15;;;;;;;4.00;1.63;;;;;;;;;;5014454;28;20785;-85
2021/10/06 12:31:42;;;;;;;7.53;1.73;;;;;;;;;;5029175;28;20030;-85
2021/10/06 12:34:09;;;;;;;6.50;1.90;;;;;;;;;;5045707;28;20491;-83
2021/10/06 12:36:36;;;;;;;6.63;1.90;;;;;;;;;;5032130;28;20041;-88
2021/10/06 12:39:11;;;;;;;4.93;1.90;;;;;;;;;;5052322;28;20029;-88
2021/10/06 12:41:42;;;;;;;5.20;1.80;;;;;;;;;;5047471;28;20672;-88
2021/10/06 12:44:17;;;;;;;8.15;2.15;;;;;;;;;;5046752;28;20524;-83
2021/10/06 12:46:43;;;;;;;8.18;1.90;;;;;;;;;;5047698;28;20043;-86
2021/10/06 12:49:13;;;;;;;7.28;2.97;;;;;;;;;;5029786;28;20029;-85
2021/10/06 12:51:42;;;;;;;6.25;2.30;;;;;;;;;;5029550;28;20116;-84
2021/10/06 12:54:21;;;;;;;8.30;2.67;;;;;;;;;;5012329;28;20100;-84
2021/10/06 12:57:05;;;;;;;6.82;1.52;;;;;;;;;;5029928;28;20033;-84
2021/10/06 12:59:44;;;;;;;7.25;1.73;;;;;;;;;;5028888;28;20040;-83
2021/10/06 13:02:15;;;;;;;7.40;1.98;;;;;;;;;;5033312;28;20033;-84
2021/10/06 13:04:42;;;;;;;5.88;1.60;;;;;;;;;;5010120;28;20037;-84
2021/10/06 13:07:09;;;;;;;6.38;1.70;;;;;;;;;;5048031;28;20041;-85
2021/10/06 13:09:35;;;;;;;3.75;1.50;;;;;;;;;;5035804;28;20127;-83
2021/10/06 13:12:03;;;;;;;4.07;1.52;;;;;;;;;;5033866;28;20502;-85
2021/10/06 13:14:35;;;;;;;4.80;1.60;;;;;;;;;;5045094;28;20048;-85
2021/10/06 13:17:11;;;;;;;4.68;1.73;;;;;;;;;;5046680;28;20033;-83
2021/10/06 13:19:45;;;;;;;6.88;2.15;;;;;;;;;;5005303;28;20048;-83
2021/10/06 13:22:11;;;;;;;8.50;1.88;;;;;;;;;;5023750;28;20044;-88
2021/10/06 13:24:40;;;;;;;5.63;1.75;;;;;;;;;;5021195;28;20041;-85
2021/10/06 13:27:08;;;;;;;5.38;1.67;;;;;;;;;;5024008;28;20047;-88
2021/10/06 13:29:33;;;;;;;6.43;1.85;;;;;;;;;;5024124;28;20392;-83
2021/10/06 13:31:59;;;;;;;5.30;1.77;;;;;;;;;;5025831;28;20490;-83
2021/10/06 13:34:28;;;;;;;5.50;2.03;;;;;;;;;;5048242;28;20434;-83
2021/10/06 13:36:53;;;;;;;5.28;1.85;;;;;;;;;;5027473;28;20060;-87
2021/10/06 13:39:19;;;;;;;6.25;1.73;;;;;;;;;;5031056;28;20028;-87
2021/10/06 13:41:44;;;;;;;8.38;2.00;;;;;;;;;;5028428;28;20082;-85
2021/10/06 13:44:16;;;;;;;7.68;1.48;;;;;;;;;;5022812;28;20140;-84
2021/10/06 13:46:44;;;;;;;7.45;1.83;;;;;;;;;;5010774;28;20388;-83
2021/10/06 13:49:16;;;;;;;5.60;1.60;;;;;;;;;;5012994;28;20026;-84
2021/10/06 13:51:41;;;;;;;7.60;1.60;;;;;;;;;;5010512;28;20048;-83
2021/10/06 13:54:07;;;;;;;6.95;1.30;;;;;;;;;;5020662;28;20060;-83
2021/10/06 13:56:33;;;;;;;7.78;1.98;;;;;;;;;;5046478;28;20037;-85
2021/10/06 13:58:58;;;;;;;6.22;1.50;;;;;;;;;;5026957;28;20037;-84
2021/10/06 14:01:25;;;;;;;7.03;1.45;;;;;;;;;;5015062;28;20029;-83
2021/10/06 14:03:50;;;;;;;6.75;1.67;;;;;;;;;;5033559;28;20362;-84
2021/10/06 14:06:19;;;;;;;5.22;1.48;;;;;;;;;;5025162;28;20102;-86
2021/10/06 14:08:45;;;;;;;5.72;1.60;;;;;;;;;;5025118;28;20029;-83
2021/10/06 14:11:10;;;;;;;4.55;1.52;;;;;;;;;;5026919;28;20039;-84
2021/10/06 14:13:37;;;;;;;6.65;1.70;;;;;;;;;;5009213;28;20036;-85
2021/10/06 14:16:06;;;;;;;8.35;2.03;;;;;;;;;;5027986;28;20441;-88
2021/10/06 14:18:31;;;;;;;7.78;1.80;;;;;;;;;;5039893;28;20156;-86
2021/10/06 14:20:59;;;;;;;7.53;1.73;;;;;;;;;;5021549;28;20115;-85
2021/10/06 14:23:28;;;;;;;8.60;2.58;;;;;;;;;;5029670;28;20033;-85
2021/10/06 14:25:59;;;;;;;8.70;1.75;;;;;;;;;;5028785;28;20482;-83
2021/10/06 14:28:27;;;;;;;8.18;1.80;;;;;;;;;;5030710;28;20033;-83
2021/10/06 14:31:12;;;;;;;;;;;;;;;;;;;;;
2021/10/06 14:33:59;;;;;;;8.30;1.85;;;;;;;;;;5006653;28;20043;-85
2021/10/06 14:36:30;;;;;;;11.07;1.65;;;;;;;;;;5030206;28;20035;-86
2021/10/06 14:38:58;;;;;;;7.18;1.50;;;;;;;;;;5039247;28;20044;-85
2021/10/06 14:41:33;;;;;;;5.68;1.90;;;;;;;;;;5027370;28;20056;-88
2021/10/06 14:44:03;;;;;;;8.18;2.22;;;;;;;;;;5046992;28;20033;-84
2021/10/06 14:46:33;;;;;;;6.10;1.60;;;;;;;;;;5013444;28;20452;-84